sensor_id;sensor_type;location;lat;lon;timestamp;pressure;altitude;pressure_sealevel;temperature;humidity
59337;BME280;45115;52.002;4.686;2023-09-08T00:00:06;65992.00;;;20.63;95.06
59337;BME280;45115;52.002;4.686;2023-09-08T00:02:34;65985.75;;;20.57;95.49
59337;BME280;45115;52.002;4.686;2023-09-08T00:05:01;65983.06;;;20.60;95.24
59337;BME280;45115;52.002;4.686;2023-09-08T00:07:28;65970.97;;;20.47;95.64
59337;BME280;45115;52.002;4.686;2023-09-08T00:09:55;65973.75;;;20.47;96.03
59337;BME280;45115;52.002;4.686;2023-09-08T00:12:23;65962.28;;;20.37;96.72
59337;BME280;45115;52.002;4.686;2023-09-08T00:14:49;65952.22;;;20.33;97.32
59337;BME280;45115;52.002;4.686;2023-09-08T00:17:16;65957.63;;;20.30;97.33
59337;BME280;45115;52.002;4.686;2023-09-08T00:19:43;65947.44;;;20.24;97.76
59337;BME280;45115;52.002;4.686;2023-09-08T00:22:10;65928.19;;;20.12;98.23
59337;BME280;45115;52.002;4.686;2023-09-08T00:24:37;65926.38;;;20.08;98.78
59337;BME280;45115;52.002;4.686;2023-09-08T00:27:04;65917.91;;;20.02;99.04
59337;BME280;45115;52.002;4.686;2023-09-08T00:29:32;65910.38;;;19.93;99.79
59337;BME280;45115;52.002;4.686;2023-09-08T00:31:59;65902.97;;;19.87;100.00
59337;BME280;45115;52.002;4.686;2023-09-08T00:34:26;65885.94;;;19.74;100.00
59337;BME280;45115;52.002;4.686;2023-09-08T00:36:52;65881.16;;;19.65;100.00
59337;BME280;45115;52.002;4.686;2023-09-08T00:39:20;65868.13;;;19.56;100.00
59337;BME280;45115;52.002;4.686;2023-09-08T00:41:46;65849.84;;;19.40;100.00
59337;BME280;45115;52.002;4.686;2023-09-08T00:44:13;65853.28;;;19.43;100.00
59337;BME280;45115;52.002;4.686;2023-09-08T00:46:41;65848.06;;;19.36;100.00
59337;BME280;45115;52.002;4.686;2023-09-08T00:49:08;65852.03;;;19.40;100.00
59337;BME280;45115;52.002;4.686;2023-09-08T00:51:36;65847.59;;;19.38;100.00
59337;BME280;45115;52.002;4.686;2023-09-08T00:54:05;65850.44;;;19.41;100.00
59337;BME280;45115;52.002;4.686;2023-09-08T00:56:32;65845.84;;;19.37;100.00
59337;BME280;45115;52.002;4.686;2023-09-08T00:58:59;65832.13;;;19.25;100.00
59337;BME280;45115;52.002;4.686;2023-09-08T01:01:27;65832.13;;;19.25;100.00
59337;BME280;45115;52.002;4.686;2023-09-08T01:03:56;65837.16;;;19.27;100.00
59337;BME280;45115;52.002;4.686;2023-09-08T01:06:23;65831.00;;;19.24;100.00
59337;BME280;45115;52.002;4.686;2023-09-08T01:08:50;65822.91;;;19.14;100.00
59337;BME280;45115;52.002;4.686;2023-09-08T01:11:19;65820.72;;;19.15;100.00
59337;BME280;45115;52.002;4.686;2023-09-08T01:13:47;65821.75;;;19.13;100.00
59337;BME280;45115;52.002;4.686;2023-09-08T01:16:14;65832.59;;;19.23;100.00
59337;BME280;45115;52.002;4.686;2023-09-08T01:18:41;65824.13;;;19.18;100.00
59337;BME280;45115;52.002;4.686;2023-09-08T01:21:30;65824.06;;;19.15;100.00
59337;BME280;45115;52.002;4.686;2023-09-08T01:24:25;65831.47;;;19.22;100.00
59337;BME280;45115;52.002;4.686;2023-09-08T01:26:59;65828.59;;;19.19;100.00
59337;BME280;45115;52.002;4.686;2023-09-08T01:29:26;65811.59;;;19.07;100.00
59337;BME280;45115;52.002;4.686;2023-09-08T01:31:54;65801.78;;;18.96;100.00
59337;BME280;45115;52.002;4.686;2023-09-08T01:34:21;65794.84;;;18.87;100.00
59337;BME280;45115;52.002;4.686;2023-09-08T01:36:48;65788.09;;;18.83;100.00
59337;BME280;45115;52.002;4.686;2023-09-08T01:39:15;65786.94;;;18.82;100.00
59337;BME280;45115;52.002;4.686;2023-09-08T01:41:42;65783.53;;;18.79;100.00
59337;BME280;45115;52.002;4.686;2023-09-08T01:44:10;65778.41;;;18.75;100.00
59337;BME280;45115;52.002;4.686;2023-09-08T01:46:37;65756.81;;;18.58;100.00
59337;BME280;45115;52.002;4.686;2023-09-08T01:49:06;65756.22;;;18.58;100.00
59337;BME280;45115;52.002;4.686;2023-09-08T01:51:33;65753.47;;;18.58;100.00
59337;BME280;45115;52.002;4.686;2023-09-08T01:54:00;65750.53;;;18.53;100.00
59337;BME280;45115;52.002;4.686;2023-09-08T01:56:27;65740.28;;;18.44;100.00
59337;BME280;45115;52.002;4.686;2023-09-08T01:58:53;65733.41;;;18.38;100.00
59337;BME280;45115;52.002;4.686;2023-09-08T02:01:21;65738.31;;;18.37;100.00
59337;BME280;45115;52.002;4.686;2023-09-08T02:03:48;65738.00;;;18.42;100.00
59337;BME280;45115;52.002;4.686;2023-09-08T02:06:15;65739.72;;;18.43;100.00
59337;BME280;45115;52.002;4.686;2023-09-08T02:08:41;65739.03;;;18.40;100.00
59337;BME280;45115;52.002;4.686;2023-09-08T02:11:08;65727.78;;;18.35;100.00
59337;BME280;45115;52.002;4.686;2023-09-08T02:13:35;65721.44;;;18.27;100.00
59337;BME280;45115;52.002;4.686;2023-09-08T02:16:01;65728.38;;;18.36;100.00
59337;BME280;45115;52.002;4.686;2023-09-08T02:18:29;65729.88;;;18.32;100.00
59337;BME280;45115;52.002;4.686;2023-09-08T02:20:56;65726.34;;;18.27;100.00
59337;BME280;45115;52.002;4.686;2023-09-08T02:23:23;65727.72;;;18.33;100.00
59337;BME280;45115;52.002;4.686;2023-09-08T02:25:49;65723.72;;;18.29;100.00
59337;BME280;45115;52.002;4.686;2023-09-08T02:28:16;65724.84;;;18.30;100.00
59337;BME280;45115;52.002;4.686;2023-09-08T02:30:43;65721.22;;;18.22;100.00
59337;BME280;45115;52.002;4.686;2023-09-08T02:33:10;65709.34;;;18.14;100.00
59337;BME280;45115;52.002;4.686;2023-09-08T02:35:39;65695.19;;;18.04;100.00
59337;BME280;45115;52.002;4.686;2023-09-08T02:38:07;65689.97;;;17.97;100.00
59337;BME280;45115;52.002;4.686;2023-09-08T02:40:34;65683.69;;;17.92;100.00
59337;BME280;45115;52.002;4.686;2023-09-08T02:43:00;65679.69;;;17.88;100.00
59337;BME280;45115;52.002;4.686;2023-09-08T02:45:27;65671.63;;;17.78;100.00
59337;BME280;45115;52.002;4.686;2023-09-08T02:47:55;65656.78;;;17.65;100.00
59337;BME280;45115;52.002;4.686;2023-09-08T02:50:22;65635.25;;;17.49;100.00
59337;BME280;45115;52.002;4.686;2023-09-08T02:52:50;65630.22;;;17.47;100.00
59337;BME280;45115;52.002;4.686;2023-09-08T02:55:17;65643.22;;;17.56;100.00
59337;BME280;45115;52.002;4.686;2023-09-08T02:57:44;65640.94;;;17.54;100.00
59337;BME280;45115;52.002;4.686;2023-09-08T03:00:12;65644.47;;;17.59;100.00
59337;BME280;45115;52.002;4.686;2023-09-08T03:02:38;65643.31;;;17.58;100.00
59337;BME280;45115;52.002;4.686;2023-09-08T03:05:06;65642.66;;;17.55;100.00
59337;BME280;45115;52.002;4.686;2023-09-08T03:07:35;65640.38;;;17.53;100.00
59337;BME280;45115;52.002;4.686;2023-09-08T03:10:05;65659.19;;;17.70;100.00
59337;BME280;45115;52.002;4.686;2023-09-08T03:12:32;65664.97;;;17.77;100.00
59337;BME280;45115;52.002;4.686;2023-09-08T03:15:01;65672.88;;;17.82;100.00
59337;BME280;45115;52.002;4.686;2023-09-08T03:17:27;65678.56;;;17.87;100.00
59337;BME280;45115;52.002;4.686;2023-09-08T03:19:54;65684.84;;;17.93;100.00
59337;BME280;45115;52.002;4.686;2023-09-08T03:22:21;65693.88;;;17.98;100.00
59337;BME280;45115;52.002;4.686;2023-09-08T03:24:50;65691.31;;;18.03;100.00
59337;BME280;45115;52.002;4.686;2023-09-08T03:27:18;65692.25;;;17.99;100.00
59337;BME280;45115;52.002;4.686;2023-09-08T03:29:44;65693.41;;;18.00;100.00
59337;BME280;45115;52.002;4.686;2023-09-08T03:32:11;65703.66;;;18.09;100.00
59337;BME280;45115;52.002;4.686;2023-09-08T03:34:38;65703.09;;;18.09;100.00
59337;BME280;45115;52.002;4.686;2023-09-08T03:37:06;65700.91;;;18.09;100.00
59337;BME280;45115;52.002;4.686;2023-09-08T03:39:33;65699.09;;;18.05;100.00
59337;BME280;45115;52.002;4.686;2023-09-08T03:42:01;65695.78;;;18.05;100.00
59337;BME280;45115;52.002;4.686;2023-09-08T03:44:30;65695.66;;;18.02;100.00
59337;BME280;45115;52.002;4.686;2023-09-08T03:46:56;65681.06;;;17.94;100.00
59337;BME280;45115;52.002;4.686;2023-09-08T03:49:23;65685.50;;;17.96;100.00
59337;BME280;45115;52.002;4.686;2023-09-08T03:51:50;65689.97;;;17.97;100.00
59337;BME280;45115;52.002;4.686;2023-09-08T03:54:17;65675.16;;;17.84;100.00
59337;BME280;45115;52.002;4.686;2023-09-08T03:56:44;65664.44;;;17.77;100.00
59337;BME280;45115;52.002;4.686;2023-09-08T03:59:10;65667.72;;;17.77;100.00
59337;BME280;45115;52.002;4.686;2023-09-08T04:01:39;65664.44;;;17.77;100.00
59337;BME280;45115;52.002;4.686;2023-09-08T04:04:05;65664.31;;;17.74;100.00
59337;BME280;45115;52.002;4.686;2023-09-08T04:06:32;65663.72;;;17.74;100.00
59337;BME280;45115;52.002;4.686;2023-09-08T04:08:59;65665.56;;;17.78;100.00
59337;BME280;45115;52.002;4.686;2023-09-08T04:11:26;65659.28;;;17.72;100.00
59337;BME280;45115;52.002;4.686;2023-09-08T04:13:53;65666.03;;;17.76;100.00
59337;BME280;45115;52.002;4.686;2023-09-08T04:16:20;65655.75;;;17.67;100.00
59337;BME280;45115;52.002;4.686;2023-09-08T04:18:48;65651.22;;;17.63;100.00
59337;BME280;45115;52.002;4.686;2023-09-08T04:21:14;65649.59;;;17.64;100.00
59337;BME280;45115;52.002;4.686;2023-09-08T04:23:41;65653.38;;;17.62;100.00
59337;BME280;45115;52.002;4.686;2023-09-08T04:26:08;65651.75;;;17.63;100.00
59337;BME280;45115;52.002;4.686;2023-09-08T04:28:34;65643.22;;;17.56;100.00
59337;BME280;45115;52.002;4.686;2023-09-08T04:31:01;65639.34;;;17.55;100.00
59337;BME280;45115;52.002;4.686;2023-09-08T04:33:29;65638.09;;;17.51;100.00
59337;BME280;45115;52.002;4.686;2023-09-08T04:35:57;65627.34;;;17.44;100.00
59337;BME280;45115;52.002;4.686;2023-09-08T04:38:24;65624.50;;;17.42;100.00
59337;BME280;45115;52.002;4.686;2023-09-08T04:40:50;65625.53;;;17.40;100.00
59337;BME280;45115;52.002;4.686;2023-09-08T04:43:17;65625.53;;;17.40;100.00
59337;BME280;45115;52.002;4.686;2023-09-08T04:45:44;65612.53;;;17.31;100.00
59337;BME280;45115;52.002;4.686;2023-09-08T04:48:11;65620.53;;;17.38;100.00
59337;BME280;45115;52.002;4.686;2023-09-08T04:50:39;65620.53;;;17.38;100.00
59337;BME280;45115;52.002;4.686;2023-09-08T04:53:07;65622.13;;;17.37;100.00
59337;BME280;45115;52.002;4.686;2023-09-08T04:55:34;65620.41;;;17.36;100.00
59337;BME280;45115;52.002;4.686;2023-09-08T04:58:03;65617.00;;;17.33;100.00
59337;BME280;45115;52.002;4.686;2023-09-08T05:00:30;65625.53;;;17.40;100.00
59337;BME280;45115;52.002;4.686;2023-09-08T05:02:59;65618.69;;;17.34;100.00
59337;BME280;45115;52.002;4.686;2023-09-08T05:05:25;65623.25;;;17.38;100.00
59337;BME280;45115;52.002;4.686;2023-09-08T05:07:52;65617.44;;;17.31;100.00
59337;BME280;45115;52.002;4.686;2023-09-08T05:10:23;65615.38;;;17.34;100.00
59337;BME280;45115;52.002;4.686;2023-09-08T05:12:50;65613.13;;;17.32;100.00
59337;BME280;45115;52.002;4.686;2023-09-08T05:15:17;65612.53;;;17.31;100.00
59337;BME280;45115;52.002;4.686;2023-09-08T05:17:49;65616.88;;;17.30;100.00
59337;BME280;45115;52.002;4.686;2023-09-08T05:20:18;65611.88;;;17.28;100.00
59337;BME280;45115;52.002;4.686;2023-09-08T05:22:45;65613.13;;;17.32;100.00
59337;BME280;45115;52.002;4.686;2023-09-08T05:25:12;65609.22;;;17.31;100.00
59337;BME280;45115;52.002;4.686;2023-09-08T05:27:40;65619.28;;;17.35;100.00
59337;BME280;45115;52.002;4.686;2023-09-08T05:30:07;65619.94;;;17.38;100.00
59337;BME280;45115;52.002;4.686;2023-09-08T05:32:35;65622.13;;;17.37;100.00
59337;BME280;45115;52.002;4.686;2023-09-08T05:35:03;65626.78;;;17.44;100.00
59337;BME280;45115;52.002;4.686;2023-09-08T05:37:30;65642.53;;;17.53;100.00
59337;BME280;45115;52.002;4.686;2023-09-08T05:39:57;65637.06;;;17.53;100.00
59337;BME280;45115;52.002;4.686;2023-09-08T05:42:24;65646.66;;;17.59;100.00
59337;BME280;45115;52.002;4.686;2023-09-08T05:44:52;65655.75;;;17.67;100.00
59337;BME280;45115;52.002;4.686;2023-09-08T05:47:20;65663.72;;;17.74;100.00
59337;BME280;45115;52.002;4.686;2023-09-08T05:49:48;65661.56;;;17.74;100.00
59337;BME280;45115;52.002;4.686;2023-09-08T05:52:14;65667.72;;;17.77;100.00
59337;BME280;45115;52.002;4.686;2023-09-08T05:54:42;65667.94;;;17.83;100.00
59337;BME280;45115;52.002;4.686;2023-09-08T05:57:10;65674.13;;;17.86;100.00
59337;BME280;45115;52.002;4.686;2023-09-08T05:59:40;65685.31;;;17.91;100.00
59337;BME280;45115;52.002;4.686;2023-09-08T06:02:08;65693.41;;;18.00;100.00
59337;BME280;45115;52.002;4.686;2023-09-08T06:04:35;65697.47;;;18.06;100.00
59337;BME280;45115;52.002;4.686;2023-09-08T06:07:02;65714.50;;;18.19;100.00
59337;BME280;45115;52.002;4.686;2023-09-08T06:09:30;65714.56;;;18.21;100.00
59337;BME280;45115;52.002;4.686;2023-09-08T06:11:57;65739.59;;;18.41;100.00
59337;BME280;45115;52.002;4.686;2023-09-08T06:14:23;65739.13;;;18.43;100.00
59337;BME280;45115;52.002;4.686;2023-09-08T06:16:50;65755.69;;;18.57;100.00
59337;BME280;45115;52.002;4.686;2023-09-08T06:19:18;65755.78;;;18.60;100.00
59337;BME280;45115;52.002;4.686;2023-09-08T06:21:45;65772.13;;;18.69;100.00
59337;BME280;45115;52.002;4.686;2023-09-08T06:24:12;65776.19;;;18.75;100.00
59337;BME280;45115;52.002;4.686;2023-09-08T06:26:39;65781.94;;;18.80;100.00
59337;BME280;45115;52.002;4.686;2023-09-08T06:29:07;65793.22;;;18.88;100.00
59337;BME280;45115;52.002;4.686;2023-09-08T06:31:34;65806.34;;;19.00;100.00
59337;BME280;45115;52.002;4.686;2023-09-08T06:34:01;65809.88;;;19.05;100.00
59337;BME280;45115;52.002;4.686;2023-09-08T06:36:29;65819.47;;;19.11;100.00
59337;BME280;45115;52.002;4.686;2023-09-08T06:38:56;65823.09;;;19.19;100.00
59337;BME280;45115;52.002;4.686;2023-09-08T06:41:23;65845.19;;;19.34;100.00
59337;BME280;45115;52.002;4.686;2023-09-08T06:43:53;65850.34;;;19.38;100.00
59337;BME280;45115;52.002;4.686;2023-09-08T06:46:21;65854.41;;;19.44;100.00
59337;BME280;45115;52.002;4.686;2023-09-08T06:48:48;65866.88;;;19.53;100.00
59337;BME280;45115;52.002;4.686;2023-09-08T06:51:15;65884.13;;;19.70;100.00
59337;BME280;45115;52.002;4.686;2023-09-08T06:53:44;65896.09;;;19.81;100.00
59337;BME280;45115;52.002;4.686;2023-09-08T06:56:11;65906.97;;;19.90;100.00
59337;BME280;45115;52.002;4.686;2023-09-08T06:58:38;65922.97;;;20.05;100.00
59337;BME280;45115;52.002;4.686;2023-09-08T07:01:04;65930.38;;;20.11;100.00
59337;BME280;45115;52.002;4.686;2023-09-08T07:03:31;65952.59;;;20.28;100.00
59337;BME280;45115;52.002;4.686;2023-09-08T07:06:03;65976.13;;;20.51;100.00
59337;BME280;45115;52.002;4.686;2023-09-08T07:08:30;66037.31;;;21.05;99.93
59337;BME280;45115;52.002;4.686;2023-09-08T07:10:58;66071.81;;;21.40;97.28
59337;BME280;45115;52.002;4.686;2023-09-08T07:13:25;66082.59;;;21.47;96.64
59337;BME280;45115;52.002;4.686;2023-09-08T07:15:51;66112.81;;;21.71;96.38
59337;BME280;45115;52.002;4.686;2023-09-08T07:18:18;66165.47;;;22.17;93.23
59337;BME280;45115;52.002;4.686;2023-09-08T07:20:46;66179.22;;;22.30;91.76
59337;BME280;45115;52.002;4.686;2023-09-08T07:23:13;66190.09;;;22.39;91.01
59337;BME280;45115;52.002;4.686;2023-09-08T07:25:40;66181.50;;;22.32;92.16
59337;BME280;45115;52.002;4.686;2023-09-08T07:28:12;66173.50;;;22.25;92.78
59337;BME280;45115;52.002;4.686;2023-09-08T07:30:39;66173.50;;;22.25;93.50
59337;BME280;45115;52.002;4.686;2023-09-08T07:33:06;66190.09;;;22.39;92.68
59337;BME280;45115;52.002;4.686;2023-09-08T07:35:36;66222.66;;;22.65;91.65
59337;BME280;45115;52.002;4.686;2023-09-08T07:38:03;66261.13;;;23.01;90.41
59337;BME280;45115;52.002;4.686;2023-09-08T07:42:56;66380.31;;;24.03;84.38
59337;BME280;45115;52.002;4.686;2023-09-08T07:45:25;66433.25;;;24.55;82.39
59337;BME280;45115;52.002;4.686;2023-09-08T07:47:52;66477.94;;;24.91;80.09
59337;BME280;45115;52.002;4.686;2023-09-08T07:50:20;66544.53;;;25.50;76.26
59337;BME280;45115;52.002;4.686;2023-09-08T07:52:48;66572.59;;;25.72;75.38
59337;BME280;45115;52.002;4.686;2023-09-08T07:55:16;66546.25;;;25.51;75.92
59337;BME280;45115;52.002;4.686;2023-09-08T07:57:44;66547.50;;;25.55;76.65
59337;BME280;45115;52.002;4.686;2023-09-08T08:00:12;66553.06;;;25.55;77.00
59337;BME280;45115;52.002;4.686;2023-09-08T08:02:43;66526.16;;;25.33;76.88
59337;BME280;45115;52.002;4.686;2023-09-08T08:05:10;66532.41;;;25.37;78.10
59337;BME280;45115;52.002;4.686;2023-09-08T08:07:37;66515.25;;;25.24;78.21
59337;BME280;45115;52.002;4.686;2023-09-08T08:10:05;66577.34;;;25.81;77.19
59337;BME280;45115;52.002;4.686;2023-09-08T08:12:32;66656.56;;;26.48;73.74
59337;BME280;45115;52.002;4.686;2023-09-08T08:14:59;66745.72;;;27.25;69.64
59337;BME280;45115;52.002;4.686;2023-09-08T08:17:26;66743.00;;;27.28;69.73
59337;BME280;45115;52.002;4.686;2023-09-08T08:19:54;66753.22;;;27.32;69.25
59337;BME280;45115;52.002;4.686;2023-09-08T08:22:21;66764.81;;;27.44;68.14
59337;BME280;45115;52.002;4.686;2023-09-08T08:24:48;66801.03;;;27.76;68.87
59337;BME280;45115;52.002;4.686;2023-09-08T08:27:15;66815.81;;;27.84;66.99
59337;BME280;45115;52.002;4.686;2023-09-08T08:29:42;66847.59;;;28.14;66.69
59337;BME280;45115;52.002;4.686;2023-09-08T08:32:08;66836.56;;;28.02;67.19
59337;BME280;45115;52.002;4.686;2023-09-08T08:34:35;66847.59;;;28.14;67.56
59337;BME280;45115;52.002;4.686;2023-09-08T08:37:03;66822.25;;;27.92;67.53
59337;BME280;45115;52.002;4.686;2023-09-08T08:39:30;66830.31;;;27.99;67.44
59337;BME280;45115;52.002;4.686;2023-09-08T08:41:56;66847.59;;;28.14;67.32
59337;BME280;45115;52.002;4.686;2023-09-08T08:44:23;66897.03;;;28.55;66.19
59337;BME280;45115;52.002;4.686;2023-09-08T08:46:51;66886.34;;;28.53;66.06
59337;BME280;45115;52.002;4.686;2023-09-08T08:49:21;66896.53;;;28.57;66.28
59337;BME280;45115;52.002;4.686;2023-09-08T08:51:50;66891.53;;;28.58;66.72
59337;BME280;45115;52.002;4.686;2023-09-08T08:54:20;66860.81;;;28.26;67.05
59337;BME280;45115;52.002;4.686;2023-09-08T08:56:47;66913.72;;;28.70;66.98
59337;BME280;45115;52.002;4.686;2023-09-08T08:59:14;66910.28;;;28.67;66.95
59337;BME280;45115;52.002;4.686;2023-09-08T09:01:42;66913.72;;;28.70;67.78
59337;BME280;45115;52.002;4.686;2023-09-08T09:04:10;66911.41;;;28.68;67.64
59337;BME280;45115;52.002;4.686;2023-09-08T09:06:37;66924.84;;;28.84;66.14
59337;BME280;45115;52.002;4.686;2023-09-08T09:09:04;66898.34;;;28.61;66.90
59337;BME280;45115;52.002;4.686;2023-09-08T09:11:32;66888.66;;;28.55;67.46
59337;BME280;45115;52.002;4.686;2023-09-08T09:13:59;66917.34;;;28.78;67.21
59337;BME280;45115;52.002;4.686;2023-09-08T09:16:26;66928.88;;;28.88;66.75
59337;BME280;45115;52.002;4.686;2023-09-08T09:18:56;66921.47;;;28.84;67.35
59337;BME280;45115;52.002;4.686;2023-09-08T09:21:24;66928.38;;;28.90;66.59
59337;BME280;45115;52.002;4.686;2023-09-08T09:23:51;66935.88;;;28.96;66.59
59337;BME280;45115;52.002;4.686;2023-09-08T09:26:25;66931.66;;;28.88;66.62
59337;BME280;45115;52.002;4.686;2023-09-08T09:28:53;66931.66;;;28.88;66.86
59337;BME280;45115;52.002;4.686;2023-09-08T09:31:24;66945.00;;;29.02;66.66
59337;BME280;45115;52.002;4.686;2023-09-08T09:34:01;66940.31;;;28.95;66.02
59337;BME280;45115;52.002;4.686;2023-09-08T09:36:30;66977.88;;;29.30;66.39
59337;BME280;45115;52.002;4.686;2023-09-08T09:38:58;66962.78;;;29.15;66.97
59337;BME280;45115;52.002;4.686;2023-09-08T09:41:26;66974.88;;;29.25;66.21
59337;BME280;45115;52.002;4.686;2023-09-08T09:43:55;66997.34;;;29.45;67.23
59337;BME280;45115;52.002;4.686;2023-09-08T09:46:22;67016.44;;;29.64;65.31
59337;BME280;45115;52.002;4.686;2023-09-08T09:48:51;67040.63;;;29.83;64.67
59337;BME280;45115;52.002;4.686;2023-09-08T09:51:19;67041.16;;;29.83;63.91
59337;BME280;45115;52.002;4.686;2023-09-08T09:53:46;67070.59;;;30.09;64.21
59337;BME280;45115;52.002;4.686;2023-09-08T09:56:14;67091.44;;;30.29;63.99
59337;BME280;45115;52.002;4.686;2023-09-08T09:58:43;67096.06;;;30.33;62.93
59337;BME280;45115;52.002;4.686;2023-09-08T10:01:12;67083.94;;;30.23;63.75
59337;BME280;45115;52.002;4.686;2023-09-08T10:03:40;67092.53;;;30.28;62.45
59337;BME280;45115;52.002;4.686;2023-09-08T10:06:06;67103.56;;;30.40;62.38
59337;BME280;45115;52.002;4.686;2023-09-08T10:08:34;67137.56;;;30.69;62.08
59337;BME280;45115;52.002;4.686;2023-09-08T10:11:05;67161.19;;;30.88;60.80
59337;BME280;45115;52.002;4.686;2023-09-08T10:13:38;67162.31;;;30.89;60.49
59337;BME280;45115;52.002;4.686;2023-09-08T10:16:05;67179.06;;;31.03;59.70
59337;BME280;45115;52.002;4.686;2023-09-08T10:18:37;67191.19;;;31.14;59.42
59337;BME280;45115;52.002;4.686;2023-09-08T10:21:07;67208.00;;;31.31;57.79
59337;BME280;45115;52.002;4.686;2023-09-08T10:23:36;67230.94;;;31.46;56.84
59337;BME280;45115;52.002;4.686;2023-09-08T10:26:09;67228.72;;;31.46;57.58
59337;BME280;45115;52.002;4.686;2023-09-08T10:28:37;67229.84;;;31.47;57.09
59337;BME280;45115;52.002;4.686;2023-09-08T10:31:04;67224.66;;;31.43;56.01
59337;BME280;45115;52.002;4.686;2023-09-08T10:33:31;67233.81;;;31.48;56.65
59337;BME280;45115;52.002;4.686;2023-09-08T10:36:01;67243.78;;;31.62;56.02
59337;BME280;45115;52.002;4.686;2023-09-08T10:38:32;67251.28;;;31.68;53.78
59337;BME280;45115;52.002;4.686;2023-09-08T10:41:26;67271.03;;;31.88;54.63
59337;BME280;45115;52.002;4.686;2023-09-08T10:43:55;67285.97;;;31.99;54.64
59337;BME280;45115;52.002;4.686;2023-09-08T10:46:24;67303.94;;;32.17;53.95
59337;BME280;45115;52.002;4.686;2023-09-08T10:48:53;67316.56;;;32.25;53.19
59337;BME280;45115;52.002;4.686;2023-09-08T10:51:22;67337.97;;;32.44;52.97
59337;BME280;45115;52.002;4.686;2023-09-08T10:53:50;67361.66;;;32.64;51.15
59337;BME280;45115;52.002;4.686;2023-09-08T10:56:17;67328.69;;;32.36;51.20
59337;BME280;45115;52.002;4.686;2023-09-08T10:58:49;67326.38;;;32.34;51.64
59337;BME280;45115;52.002;4.686;2023-09-08T11:01:18;67351.16;;;32.53;51.67
59337;BME280;45115;52.002;4.686;2023-09-08T11:03:48;67354.13;;;32.58;50.42
59337;BME280;45115;52.002;4.686;2023-09-08T11:06:17;67389.38;;;32.89;51.38
59337;BME280;45115;52.002;4.686;2023-09-08T11:08:46;67398.06;;;32.96;50.95
59337;BME280;45115;52.002;4.686;2023-09-08T11:11:14;67404.44;;;33.02;48.75
59337;BME280;45115;52.002;4.686;2023-09-08T11:13:41;67412.47;;;33.06;47.78
59337;BME280;45115;52.002;4.686;2023-09-08T11:16:10;67414.25;;;33.10;49.17
59337;BME280;45115;52.002;4.686;2023-09-08T11:18:37;67403.34;;;33.03;49.39
59337;BME280;45115;52.002;4.686;2023-09-08T11:21:08;67442.00;;;33.34;49.03
59337;BME280;45115;52.002;4.686;2023-09-08T11:23:35;67431.59;;;33.25;49.36
59337;BME280;45115;52.002;4.686;2023-09-08T11:26:03;67443.81;;;33.38;46.81
59337;BME280;45115;52.002;4.686;2023-09-08T11:28:31;67418.97;;;33.17;46.02
59337;BME280;45115;52.002;4.686;2023-09-08T11:30:58;67401.56;;;32.99;48.28
59337;BME280;45115;52.002;4.686;2023-09-08T11:33:25;67415.84;;;33.07;48.41
59337;BME280;45115;52.002;4.686;2023-09-08T11:35:52;67433.84;;;33.25;47.72
59337;BME280;45115;52.002;4.686;2023-09-08T11:38:24;67472.09;;;33.60;47.49
59337;BME280;45115;52.002;4.686;2023-09-08T11:40:52;67467.53;;;33.59;46.03
59337;BME280;45115;52.002;4.686;2023-09-08T11:43:21;67458.78;;;33.49;47.51
59337;BME280;45115;52.002;4.686;2023-09-08T11:45:48;67492.97;;;33.81;47.51
59337;BME280;45115;52.002;4.686;2023-09-08T11:48:15;67479.59;;;33.67;46.68
59337;BME280;45115;52.002;4.686;2023-09-08T11:50:42;67489.53;;;33.78;46.50
59337;BME280;45115;52.002;4.686;2023-09-08T11:53:10;67491.59;;;33.72;47.69
59337;BME280;45115;52.002;4.686;2023-09-08T11:55:36;67506.22;;;33.90;46.96
59337;BME280;45115;52.002;4.686;2023-09-08T11:58:04;67517.81;;;34.00;47.17
59337;BME280;45115;52.002;4.686;2023-09-08T12:00:32;67521.84;;;34.04;46.27
59337;BME280;45115;52.002;4.686;2023-09-08T12:03:10;67513.16;;;33.96;46.35
59337;BME280;45115;52.002;4.686;2023-09-08T12:05:37;67515.47;;;33.98;46.07
59337;BME280;45115;52.002;4.686;2023-09-08T12:08:05;67504.97;;;33.87;46.52
59337;BME280;45115;52.002;4.686;2023-09-08T12:10:37;67508.53;;;33.92;47.82
59337;BME280;45115;52.002;4.686;2023-09-08T12:13:04;67488.84;;;33.75;45.88
59337;BME280;45115;52.002;4.686;2023-09-08T12:15:33;67501.00;;;33.85;46.63
59337;BME280;45115;52.002;4.686;2023-09-08T12:18:01;67483.56;;;33.68;45.65
59337;BME280;45115;52.002;4.686;2023-09-08T12:20:28;67504.41;;;33.86;45.51
59337;BME280;45115;52.002;4.686;2023-09-08T12:22:58;67504.41;;;33.86;44.82
59337;BME280;45115;52.002;4.686;2023-09-08T12:25:26;67503.91;;;33.88;46.40
59337;BME280;45115;52.002;4.686;2023-09-08T12:27:54;67473.19;;;33.59;45.97
59337;BME280;45115;52.002;4.686;2023-09-08T12:30:22;67460.53;;;33.50;45.70
59337;BME280;45115;52.002;4.686;2023-09-08T12:32:57;67485.47;;;33.74;45.83
59337;BME280;45115;52.002;4.686;2023-09-08T12:35:25;67513.16;;;33.96;44.22
59337;BME280;45115;52.002;4.686;2023-09-08T12:37:53;67488.84;;;33.75;45.20
59337;BME280;45115;52.002;4.686;2023-09-08T12:40:20;67468.06;;;33.57;42.30
59337;BME280;45115;52.002;4.686;2023-09-08T12:42:47;67483.00;;;33.67;44.54
59337;BME280;45115;52.002;4.686;2023-09-08T12:45:14;67461.03;;;33.48;45.22
59337;BME280;45115;52.002;4.686;2023-09-08T12:47:42;67487.13;;;33.73;45.20
59337;BME280;45115;52.002;4.686;2023-09-08T12:50:10;67467.47;;;33.56;43.93
59337;BME280;45115;52.002;4.686;2023-09-08T12:52:38;67474.41;;;33.62;44.60
59337;BME280;45115;52.002;4.686;2023-09-08T12:55:05;67454.66;;;33.43;44.77
59337;BME280;45115;52.002;4.686;2023-09-08T12:57:32;67447.72;;;33.37;44.08
59337;BME280;45115;52.002;4.686;2023-09-08T12:59:59;67466.31;;;33.55;43.28